createdAt,value
2017-03-20T00:00:29.648Z,7.60
2017-03-20T00:01:35.519Z,7.60
2017-03-20T00:02:41.420Z,7.60
2017-03-20T00:03:47.241Z,7.60
2017-03-20T00:04:53.192Z,7.60
2017-03-20T00:05:58.868Z,7.70
2017-03-20T00:07:04.712Z,7.60
2017-03-20T00:08:10.363Z,7.60
2017-03-20T00:09:16.046Z,7.60
2017-03-20T00:10:21.887Z,7.50
2017-03-20T00:11:27.608Z,7.60
2017-03-20T00:12:33.261Z,7.60
2017-03-20T00:13:39.079Z,7.60
2017-03-20T00:14:44.781Z,7.60
2017-03-20T00:15:50.672Z,7.60
2017-03-20T00:16:56.340Z,7.60
2017-03-20T00:18:02.066Z,7.50
2017-03-20T00:19:07.872Z,7.50
2017-03-20T00:20:13.786Z,7.50
2017-03-20T00:21:19.694Z,7.50
2017-03-20T00:22:25.492Z,7.50
2017-03-20T00:23:32.118Z,7.50
2017-03-20T00:24:37.917Z,7.50
2017-03-20T00:25:43.868Z,7.50
2017-03-20T00:26:49.711Z,7.50
2017-03-20T00:27:56.375Z,7.40
2017-03-20T00:29:02.344Z,7.50
2017-03-20T00:30:08.063Z,7.40
2017-03-20T00:31:14.614Z,7.40
2017-03-20T00:32:21.300Z,7.40
2017-03-20T00:33:27.163Z,7.40
2017-03-20T00:34:32.957Z,7.40
2017-03-20T00:35:38.791Z,7.40
2017-03-20T00:36:44.523Z,7.40
2017-03-20T00:37:50.281Z,7.40
2017-03-20T00:38:56.225Z,7.40
2017-03-20T00:40:01.910Z,7.30
2017-03-20T00:41:07.734Z,7.40
2017-03-20T00:42:13.496Z,7.30
2017-03-20T00:43:19.277Z,7.40
2017-03-20T00:44:25.169Z,7.40
2017-03-20T00:45:30.997Z,7.40
2017-03-20T00:46:36.723Z,7.40
2017-03-20T00:47:42.570Z,7.30
2017-03-20T00:48:48.472Z,7.30
2017-03-20T00:49:55.017Z,7.40
2017-03-20T00:51:00.783Z,7.40
2017-03-20T00:52:06.556Z,7.40
2017-03-20T00:53:12.394Z,7.40
2017-03-20T00:54:18.942Z,7.40
2017-03-20T00:55:24.679Z,7.40
2017-03-20T00:56:30.505Z,7.40
2017-03-20T00:57:36.389Z,7.40
2017-03-20T00:58:42.317Z,7.30
2017-03-20T00:59:48.046Z,7.30
2017-03-20T01:00:53.777Z,7.30
2017-03-20T01:01:59.496Z,7.30
2017-03-20T01:03:05.260Z,7.30
2017-03-20T01:04:11.344Z,7.30
2017-03-20T01:05:17.180Z,7.30
2017-03-20T01:06:22.892Z,7.20
2017-03-20T01:07:28.738Z,7.20
2017-03-20T01:08:34.521Z,7.20
2017-03-20T01:09:40.305Z,7.20
2017-03-20T01:10:46.182Z,7.20
2017-03-20T01:11:51.886Z,7.20
2017-03-20T01:12:57.682Z,7.20
2017-03-20T01:14:03.613Z,7.10
2017-03-20T01:15:10.123Z,7.10
2017-03-20T01:16:15.852Z,7.20
2017-03-20T01:17:21.686Z,7.10
2017-03-20T01:18:27.640Z,7.10
2017-03-20T01:19:34.212Z,7.10
2017-03-20T01:20:40.004Z,7.20
2017-03-20T01:21:45.977Z,7.20
2017-03-20T01:22:51.679Z,7.10
2017-03-20T01:23:58.014Z,7.10
2017-03-20T01:25:03.865Z,7.20
2017-03-20T01:26:09.708Z,7.10
2017-03-20T01:27:15.468Z,7.10
2017-03-20T01:28:21.497Z,7.10
2017-03-20T01:29:27.459Z,7.10
2017-03-20T01:30:33.303Z,7.10
2017-03-20T01:31:39.312Z,7.10
2017-03-20T01:32:45.045Z,7.10
2017-03-20T01:33:50.905Z,7.10
2017-03-20T01:34:56.699Z,7.10
2017-03-20T01:36:02.503Z,7.10
2017-03-20T01:37:08.303Z,7.10
2017-03-20T01:38:14.121Z,7.10
2017-03-20T01:39:20.605Z,7.10
2017-03-20T01:40:26.361Z,7.10
2017-03-20T01:41:32.022Z,7.10
2017-03-20T01:42:37.724Z,7.10
2017-03-20T01:43:43.402Z,7.10
2017-03-20T01:44:49.153Z,7.10
2017-03-20T01:45:54.953Z,7.10
2017-03-20T01:47:00.813Z,7.10
2017-03-20T01:48:07.369Z,7.00
2017-03-20T01:49:13.052Z,7.00
2017-03-20T01:50:18.786Z,7.00
2017-03-20T01:51:24.521Z,7.00
2017-03-20T01:52:30.340Z,7.10
2017-03-20T01:53:36.140Z,7.00
2017-03-20T01:54:41.923Z,7.00
2017-03-20T01:55:47.720Z,7.00
2017-03-20T01:56:53.452Z,7.00
2017-03-20T01:57:59.360Z,7.00
2017-03-20T01:59:05.352Z,7.00
2017-03-20T02:00:11.134Z,7.00
2017-03-20T02:01:17.579Z,7.00
2017-03-20T02:02:24.043Z,7.00
2017-03-20T02:03:29.877Z,7.00
2017-03-20T02:04:35.737Z,7.00
2017-03-20T02:05:41.549Z,7.00
2017-03-20T02:06:47.607Z,7.00
2017-03-20T02:07:53.469Z,7.00
2017-03-20T02:08:59.347Z,7.00
2017-03-20T02:10:05.882Z,7.00
2017-03-20T02:11:11.601Z,7.00
2017-03-20T02:12:17.421Z,7.00
2017-03-20T02:13:23.378Z,7.00
2017-03-20T02:14:29.233Z,7.00
2017-03-20T02:15:35.201Z,7.00
2017-03-20T02:16:41.076Z,7.00
2017-03-20T02:17:47.565Z,7.00
2017-03-20T02:18:53.440Z,7.00
2017-03-20T02:19:59.440Z,7.00
2017-03-20T02:21:05.460Z,7.00
2017-03-20T02:22:11.394Z,7.00
2017-03-20T02:23:17.125Z,6.90
2017-03-20T02:24:22.985Z,6.90
2017-03-20T02:25:30.647Z,6.90
2017-03-20T02:26:36.384Z,6.90
2017-03-20T02:27:42.363Z,6.90
2017-03-20T02:28:48.883Z,6.90
2017-03-20T02:29:54.640Z,6.90
2017-03-20T02:31:00.422Z,6.90
2017-03-20T02:32:06.193Z,6.90
2017-03-20T02:33:12.116Z,6.80
2017-03-20T02:34:17.854Z,6.90
2017-03-20T02:35:23.702Z,6.90
2017-03-20T02:36:29.390Z,6.90
2017-03-20T02:37:35.186Z,6.90
2017-03-20T02:38:41.297Z,6.90
2017-03-20T02:39:47.240Z,6.90
2017-03-20T02:40:52.959Z,6.90
2017-03-20T02:43:11.015Z,6.80
2017-03-20T02:44:16.916Z,6.80
2017-03-20T02:45:22.904Z,6.80
2017-03-20T02:46:28.944Z,6.80
2017-03-20T02:47:35.433Z,6.80
2017-03-20T02:48:41.500Z,6.80
2017-03-20T02:49:47.494Z,6.80
2017-03-20T02:50:53.232Z,6.90
2017-03-20T02:51:58.960Z,6.70
2017-03-20T02:53:05.530Z,6.70
2017-03-20T02:54:11.477Z,6.70
2017-03-20T02:55:17.265Z,6.70
2017-03-20T02:56:23.418Z,6.70
2017-03-20T02:57:29.228Z,6.70
2017-03-20T02:58:35.744Z,6.60
2017-03-20T02:59:42.271Z,6.60
2017-03-20T03:00:48.009Z,6.60
2017-03-20T03:01:53.742Z,6.60
2017-03-20T03:02:59.746Z,6.60
2017-03-20T03:04:05.478Z,6.60
2017-03-20T03:05:11.515Z,6.60
2017-03-20T03:06:17.469Z,6.60
2017-03-20T03:07:23.208Z,6.60
2017-03-20T03:08:28.905Z,6.60
2017-03-20T03:09:34.594Z,6.60
2017-03-20T03:10:41.183Z,6.50
2017-03-20T03:11:47.666Z,6.50
2017-03-20T03:12:53.566Z,6.60
2017-03-20T03:13:59.382Z,6.60
2017-03-20T03:15:05.375Z,6.60
2017-03-20T03:16:11.179Z,6.60
2017-03-20T03:17:17.685Z,6.50
2017-03-20T03:18:23.409Z,6.50
2017-03-20T03:19:29.419Z,6.60
2017-03-20T03:20:35.335Z,6.60
2017-03-20T03:21:41.159Z,6.50
2017-03-20T03:22:46.939Z,6.50
2017-03-20T03:23:52.688Z,6.60
2017-03-20T03:24:58.536Z,6.60
2017-03-20T03:26:04.471Z,6.60
2017-03-20T03:27:10.989Z,6.60
2017-03-20T03:28:16.659Z,6.60
2017-03-20T03:29:22.492Z,6.70
2017-03-20T03:30:28.176Z,6.60
2017-03-20T03:31:34.660Z,6.60
2017-03-20T03:32:40.593Z,6.60
2017-03-20T03:33:46.383Z,6.50
2017-03-20T03:34:52.959Z,6.60
2017-03-20T03:35:58.648Z,6.60
2017-03-20T03:37:04.457Z,6.60
2017-03-20T03:38:10.252Z,6.50
2017-03-20T03:39:16.017Z,6.60
2017-03-20T03:40:22.026Z,6.60
2017-03-20T03:41:28.081Z,6.60
2017-03-20T03:42:34.111Z,6.50
2017-03-20T03:43:40.695Z,6.60
2017-03-20T03:44:46.700Z,6.60
2017-03-20T03:45:59.304Z,6.60
2017-03-20T03:47:05.164Z,6.60
2017-03-20T03:48:11.126Z,6.60
2017-03-20T03:49:17.229Z,6.50
2017-03-20T03:50:23.151Z,6.60
2017-03-20T03:51:28.911Z,6.60
2017-03-20T03:52:34.753Z,6.60
2017-03-20T03:53:40.508Z,6.60
2017-03-20T03:54:46.328Z,6.60
2017-03-20T03:55:52.807Z,6.50
2017-03-20T03:56:58.635Z,6.50
2017-03-20T03:58:04.352Z,6.50
2017-03-20T03:59:10.365Z,6.50
2017-03-20T04:00:16.188Z,6.50
2017-03-20T04:01:22.260Z,6.50
2017-03-20T04:02:28.143Z,6.50
2017-03-20T04:03:33.957Z,6.50
2017-03-20T04:04:39.984Z,6.50
2017-03-20T04:05:46.745Z,6.60
2017-03-20T04:06:53.330Z,6.60
2017-03-20T04:07:59.122Z,6.50
2017-03-20T04:09:05.640Z,6.50
2017-03-20T04:10:11.561Z,6.50
2017-03-20T04:11:17.372Z,6.50
2017-03-20T04:12:23.128Z,6.50
2017-03-20T04:13:28.882Z,6.50
2017-03-20T04:14:34.671Z,6.50
2017-03-20T04:15:40.493Z,6.40
2017-03-20T04:16:46.299Z,6.40
2017-03-20T04:17:52.034Z,6.40
2017-03-20T04:18:57.784Z,6.40
2017-03-20T04:20:03.541Z,6.40
2017-03-20T04:21:09.529Z,6.40
2017-03-20T04:22:15.297Z,6.30
2017-03-20T04:23:21.191Z,6.30
2017-03-20T04:24:26.972Z,6.40
2017-03-20T04:25:32.767Z,6.30
2017-03-20T04:26:39.276Z,6.40
2017-03-20T04:27:45.059Z,6.40
2017-03-20T04:28:50.816Z,6.40
2017-03-20T04:29:56.532Z,6.40
2017-03-20T04:31:03.071Z,6.30
2017-03-20T04:32:08.900Z,6.40
2017-03-20T04:33:14.713Z,6.40
2017-03-20T04:34:21.435Z,6.40
2017-03-20T04:35:27.402Z,6.40
2017-03-20T04:36:33.365Z,6.40
2017-03-20T04:37:39.907Z,6.40
2017-03-20T04:38:46.456Z,6.40
2017-03-20T04:39:52.181Z,6.40
2017-03-20T04:40:57.953Z,6.30
2017-03-20T04:42:03.651Z,6.40
2017-03-20T04:43:09.407Z,6.40
2017-03-20T04:44:15.216Z,6.30
2017-03-20T04:45:21.899Z,6.30
2017-03-20T04:46:27.754Z,6.30
2017-03-20T04:47:33.464Z,6.30
2017-03-20T04:48:39.242Z,6.30
2017-03-20T04:49:45.145Z,6.30
2017-03-20T04:50:50.988Z,6.30
2017-03-20T04:51:57.478Z,6.30
2017-03-20T04:53:03.232Z,6.40
2017-03-20T04:54:08.967Z,6.40
2017-03-20T04:55:14.689Z,6.30
2017-03-20T04:56:20.679Z,6.40
2017-03-20T04:57:26.665Z,6.40
2017-03-20T04:58:32.348Z,6.40
2017-03-20T04:59:38.147Z,6.40
2017-03-20T05:00:44.646Z,6.40
2017-03-20T05:01:50.324Z,6.40
2017-03-20T05:02:57.662Z,6.40
2017-03-20T05:04:04.226Z,6.40
2017-03-20T05:05:09.945Z,6.30
2017-03-20T05:06:15.718Z,6.40
2017-03-20T05:07:22.241Z,6.40
2017-03-20T05:08:28.047Z,6.40
2017-03-20T05:09:34.660Z,6.30
2017-03-20T05:10:41.100Z,6.40
2017-03-20T05:11:46.868Z,6.40
2017-03-20T05:12:52.539Z,6.40
2017-03-20T05:13:58.202Z,6.40
2017-03-20T05:15:04.017Z,6.40
2017-03-20T05:16:09.780Z,6.40
2017-03-20T05:17:15.652Z,6.40
2017-03-20T05:18:21.504Z,6.40
2017-03-20T05:19:28.047Z,6.40
2017-03-20T05:20:33.787Z,6.40
2017-03-20T05:21:39.776Z,6.40
2017-03-20T05:22:45.815Z,6.40
2017-03-20T05:23:52.345Z,6.40
2017-03-20T05:24:58.136Z,6.40
2017-03-20T05:26:04.007Z,6.40
2017-03-20T05:27:09.785Z,6.40
2017-03-20T05:28:15.774Z,6.40
2017-03-20T05:29:21.605Z,6.40
2017-03-20T05:30:27.413Z,6.40
2017-03-20T05:31:33.316Z,6.40
2017-03-20T05:32:39.371Z,6.40
2017-03-20T05:33:46.073Z,6.40
2017-03-20T05:34:52.052Z,6.40
2017-03-20T05:35:57.795Z,6.30
2017-03-20T05:37:04.357Z,6.30
2017-03-20T05:38:10.064Z,6.40
2017-03-20T05:39:16.552Z,6.30
2017-03-20T05:40:22.439Z,6.40
2017-03-20T05:41:29.132Z,6.30
2017-03-20T05:42:34.864Z,6.40
2017-03-20T05:43:40.653Z,6.40
2017-03-20T05:44:46.696Z,6.40
2017-03-20T05:45:52.728Z,6.40
2017-03-20T05:46:58.560Z,6.40
2017-03-20T05:48:04.328Z,6.40
2017-03-20T05:49:10.093Z,6.40
2017-03-20T05:50:16.129Z,6.40
2017-03-20T05:51:21.883Z,6.50
2017-03-20T05:52:27.700Z,6.50
2017-03-20T05:53:33.613Z,6.50
2017-03-20T05:54:39.519Z,6.50
2017-03-20T05:55:45.371Z,6.50
2017-03-20T05:56:51.177Z,6.50
2017-03-20T05:57:57.718Z,6.50
2017-03-20T05:59:03.397Z,6.50
2017-03-20T06:00:09.251Z,6.50
2017-03-20T06:01:17.213Z,6.50
2017-03-20T06:02:22.948Z,6.50
2017-03-20T06:03:28.968Z,6.50
2017-03-20T06:04:35.536Z,6.50
2017-03-20T06:05:41.554Z,6.50
2017-03-20T06:06:47.457Z,6.50
2017-03-20T06:07:53.328Z,6.50
2017-03-20T06:08:59.168Z,6.50
2017-03-20T06:10:05.094Z,6.50
2017-03-20T06:11:11.005Z,6.50
2017-03-20T06:12:16.951Z,6.50
2017-03-20T06:13:22.694Z,6.60
2017-03-20T06:14:28.523Z,6.60
2017-03-20T06:15:34.404Z,6.60
2017-03-20T06:16:40.756Z,6.60
2017-03-20T06:17:46.633Z,6.60
2017-03-20T06:18:52.617Z,6.60
2017-03-20T06:19:58.388Z,6.60
2017-03-20T06:21:05.020Z,6.60
2017-03-20T06:22:10.795Z,6.60
2017-03-20T06:23:16.624Z,6.70
2017-03-20T06:24:22.539Z,6.70
2017-03-20T06:25:28.259Z,6.70
2017-03-20T06:26:33.924Z,6.70
2017-03-20T06:27:39.649Z,6.80
2017-03-20T06:34:06.810Z,6.80
2017-03-20T06:35:12.484Z,6.90
2017-03-20T06:36:18.286Z,6.90
2017-03-20T06:37:24.168Z,6.90
2017-03-20T06:38:29.842Z,7.00
2017-03-20T06:39:35.675Z,7.00
2017-03-20T06:40:41.580Z,7.00
2017-03-20T06:41:48.180Z,7.00
2017-03-20T06:42:53.832Z,7.00
2017-03-20T06:44:00.496Z,7.00
2017-03-20T06:45:06.232Z,7.00
2017-03-20T06:46:11.896Z,7.00
2017-03-20T06:47:17.688Z,7.00
2017-03-20T06:48:23.680Z,7.00
2017-03-20T06:49:29.464Z,7.10
2017-03-20T06:50:35.181Z,7.10
2017-03-20T06:51:41.082Z,7.10
2017-03-20T06:52:46.971Z,7.10
2017-03-20T06:53:52.633Z,7.10
2017-03-20T06:54:58.373Z,7.10
2017-03-20T06:56:04.942Z,7.10
2017-03-20T06:57:10.863Z,7.20
2017-03-20T06:58:17.694Z,7.20
2017-03-20T06:59:23.469Z,7.20
2017-03-20T07:00:29.411Z,7.20
2017-03-20T07:01:35.433Z,7.20
2017-03-20T07:02:41.277Z,7.20
2017-03-20T07:03:47.176Z,7.20
2017-03-20T07:04:52.961Z,7.30
2017-03-20T07:05:58.725Z,7.30
2017-03-20T07:07:04.424Z,7.30
2017-03-20T07:08:10.219Z,7.30
2017-03-20T07:09:16.144Z,7.30
2017-03-20T07:10:22.025Z,7.30
2017-03-20T07:11:28.363Z,7.40
2017-03-20T07:12:34.333Z,7.40
2017-03-20T07:13:40.148Z,7.40
2017-03-20T07:14:46.011Z,7.40
2017-03-20T07:15:52.499Z,7.50
2017-03-20T07:16:59.133Z,7.50
2017-03-20T07:18:05.198Z,7.40
2017-03-20T07:19:11.118Z,7.40
2017-03-20T07:20:16.913Z,7.50
2017-03-20T07:21:22.684Z,7.40
2017-03-20T07:22:28.674Z,7.40
2017-03-20T07:23:34.390Z,7.40
2017-03-20T07:24:40.223Z,7.40
2017-03-20T07:25:46.165Z,7.50
2017-03-20T07:26:51.990Z,7.50
2017-03-20T07:27:57.851Z,7.50
2017-03-20T07:29:03.655Z,7.60
2017-03-20T07:30:10.149Z,7.60
2017-03-20T07:31:16.690Z,7.70
2017-03-20T07:32:23.180Z,7.70
2017-03-20T07:33:29.092Z,7.70
2017-03-20T07:34:35.127Z,7.70
2017-03-20T07:35:40.920Z,7.70
2017-03-20T07:36:46.752Z,7.70
2017-03-20T07:37:52.920Z,7.70
2017-03-20T07:38:58.825Z,7.70
2017-03-20T07:40:04.563Z,7.70
2017-03-20T07:41:10.329Z,7.70
2017-03-20T07:42:16.291Z,7.80
2017-03-20T07:43:24.200Z,7.80
2017-03-20T07:44:29.901Z,7.80
2017-03-20T07:45:35.662Z,7.80
2017-03-20T07:46:41.664Z,7.90
2017-03-20T07:47:48.276Z,7.90
2017-03-20T07:48:54.279Z,7.90
2017-03-20T07:50:00.033Z,8.00
2017-03-20T07:51:05.740Z,8.00
2017-03-20T07:52:11.653Z,8.00
2017-03-20T07:53:17.469Z,8.00
2017-03-20T07:54:24.056Z,8.00
2017-03-20T07:55:30.024Z,8.10
2017-03-20T07:56:35.807Z,8.10
2017-03-20T07:57:41.792Z,8.10
2017-03-20T07:58:47.800Z,8.10
2017-03-20T07:59:53.560Z,8.10
2017-03-20T08:00:59.527Z,8.10
2017-03-20T08:02:05.312Z,8.10
2017-03-20T08:03:11.073Z,8.10
2017-03-20T08:04:16.963Z,8.10
2017-03-20T08:05:22.690Z,8.10
2017-03-20T08:06:28.462Z,8.10
2017-03-20T08:07:34.248Z,8.10
2017-03-20T08:08:40.151Z,8.10
2017-03-20T08:09:46.024Z,8.10
2017-03-20T08:10:51.826Z,8.10
2017-03-20T08:11:57.597Z,8.20
2017-03-20T08:13:03.494Z,8.20
2017-03-20T08:14:09.446Z,8.20
2017-03-20T08:15:15.167Z,8.20
2017-03-20T08:16:21.120Z,8.20
2017-03-20T08:17:26.994Z,8.20
2017-03-20T08:18:33.739Z,8.20
2017-03-20T08:19:39.479Z,8.30
2017-03-20T08:20:45.415Z,8.30
2017-03-20T08:21:51.256Z,8.30
2017-03-20T08:22:57.144Z,8.30
2017-03-20T08:24:02.974Z,8.30
2017-03-20T08:25:08.883Z,8.30
2017-03-20T08:26:14.740Z,8.30
2017-03-20T08:27:20.491Z,8.40
2017-03-20T08:28:26.347Z,8.40
2017-03-20T08:29:32.322Z,8.40
2017-03-20T08:30:49.636Z,8.50
2017-03-20T08:33:08.294Z,8.50
2017-03-20T08:35:30.471Z,8.60
2017-03-20T08:36:47.789Z,8.60
2017-03-20T08:37:53.712Z,8.70
2017-03-20T08:38:59.665Z,8.70
2017-03-20T08:40:05.756Z,8.70
2017-03-20T08:41:11.597Z,8.70
2017-03-20T08:42:17.325Z,8.80
2017-03-20T08:43:23.195Z,8.80
2017-03-20T08:44:28.928Z,8.80
2017-03-20T08:45:34.653Z,8.90
2017-03-20T08:46:40.505Z,9.00
2017-03-20T08:47:46.276Z,9.00
2017-03-20T08:48:52.153Z,9.00
2017-03-20T08:49:58.050Z,9.10
2017-03-20T08:51:03.868Z,9.10
2017-03-20T08:52:09.826Z,9.20
2017-03-20T08:53:16.321Z,9.30
2017-03-20T08:54:22.886Z,9.30
2017-03-20T08:55:28.841Z,9.40
2017-03-20T08:56:34.787Z,9.30
2017-03-20T08:57:40.644Z,9.30
2017-03-20T08:58:46.428Z,9.30
2017-03-20T08:59:53.208Z,9.30
2017-03-20T09:00:58.965Z,9.40
2017-03-20T09:02:06.497Z,9.40
2017-03-20T09:03:12.287Z,9.40
2017-03-20T09:04:17.972Z,9.30
2017-03-20T09:05:23.894Z,9.30
2017-03-20T09:06:29.617Z,9.40
2017-03-20T09:07:35.342Z,9.40
2017-03-20T09:08:41.345Z,9.40
2017-03-20T09:09:47.887Z,9.30
2017-03-20T09:10:53.704Z,9.40
2017-03-20T09:11:59.543Z,9.40
2017-03-20T09:13:05.526Z,9.50
2017-03-20T09:14:11.508Z,9.40
2017-03-20T09:15:17.221Z,9.40
2017-03-20T09:16:22.953Z,9.50
2017-03-20T09:17:28.605Z,9.40
2017-03-20T09:18:35.281Z,9.40
2017-03-20T09:19:41.798Z,9.30
2017-03-20T09:20:47.533Z,9.30
2017-03-20T09:21:53.460Z,9.30
2017-03-20T09:22:59.292Z,9.30
2017-03-20T09:24:05.284Z,9.20
2017-03-20T09:25:11.028Z,9.20
2017-03-20T09:26:16.886Z,9.20
2017-03-20T09:27:22.656Z,9.10
2017-03-20T09:28:28.413Z,9.00
2017-03-20T09:29:34.123Z,9.00
2017-03-20T09:30:39.887Z,9.00
2017-03-20T09:31:48.345Z,8.90
2017-03-20T09:32:54.054Z,8.90
2017-03-20T09:33:59.948Z,8.80
2017-03-20T09:35:05.615Z,8.80
2017-03-20T09:36:12.469Z,8.80
2017-03-20T09:37:18.132Z,8.70
2017-03-20T09:38:23.903Z,8.70
2017-03-20T09:39:29.564Z,8.70
2017-03-20T09:40:35.252Z,8.60
2017-03-20T09:41:41.063Z,8.70
2017-03-20T09:42:46.726Z,8.70
2017-03-20T09:43:52.619Z,8.60
2017-03-20T09:44:58.459Z,8.60
2017-03-20T09:46:04.301Z,8.60
2017-03-20T09:47:10.080Z,8.60
2017-03-20T09:48:15.740Z,8.60
2017-03-20T09:49:21.490Z,8.60
2017-03-20T09:50:27.371Z,8.60
2017-03-20T09:51:33.228Z,8.50
2017-03-20T09:52:39.857Z,8.60
2017-03-20T09:53:45.792Z,8.60
2017-03-20T09:54:51.709Z,8.50
2017-03-20T09:55:58.184Z,8.60
2017-03-20T09:57:04.961Z,8.60
2017-03-20T09:58:10.903Z,8.60
2017-03-20T09:59:16.971Z,8.60
2017-03-20T10:00:22.860Z,8.60
2017-03-20T10:01:28.543Z,8.60
2017-03-20T10:02:34.512Z,8.60
2017-03-20T10:03:40.333Z,8.60
2017-03-20T10:04:46.450Z,8.50
2017-03-20T10:05:52.859Z,8.60
2017-03-20T10:06:58.637Z,8.60
2017-03-20T10:08:05.202Z,8.60
2017-03-20T10:09:11.034Z,8.60
2017-03-20T10:10:16.807Z,8.70
2017-03-20T10:11:22.748Z,8.70
2017-03-20T10:12:28.609Z,8.70
2017-03-20T10:13:35.130Z,8.70
2017-03-20T10:14:41.199Z,8.80
2017-03-20T10:15:47.235Z,8.80
2017-03-20T10:16:52.968Z,8.90
2017-03-20T10:17:58.933Z,8.90
2017-03-20T10:19:04.665Z,8.80
2017-03-20T10:20:10.422Z,8.80
2017-03-20T10:21:16.334Z,8.80
2017-03-20T10:22:22.212Z,8.90
2017-03-20T10:23:28.147Z,8.80
2017-03-20T10:24:34.150Z,8.80
2017-03-20T10:25:40.034Z,8.90
2017-03-20T10:26:46.049Z,8.80
2017-03-20T10:27:51.763Z,8.80
2017-03-20T10:28:57.584Z,8.90
2017-03-20T10:30:04.145Z,8.80
2017-03-20T10:31:10.035Z,8.90
2017-03-20T10:32:16.016Z,8.80
2017-03-20T10:33:21.843Z,8.80
2017-03-20T10:34:27.773Z,8.80
2017-03-20T10:35:33.532Z,8.90
2017-03-20T10:36:39.556Z,8.80
2017-03-20T10:37:45.323Z,8.80
2017-03-20T10:38:51.188Z,8.90
2017-03-20T10:39:57.009Z,8.90
2017-03-20T10:41:02.839Z,8.90
2017-03-20T10:42:08.805Z,8.90
2017-03-20T10:43:14.541Z,9.00
2017-03-20T10:44:20.580Z,9.00
2017-03-20T10:45:27.279Z,8.90
2017-03-20T10:46:33.237Z,8.90
2017-03-20T10:47:39.136Z,8.90
2017-03-20T10:48:45.609Z,8.90
2017-03-20T10:49:51.346Z,9.00
2017-03-20T10:50:57.147Z,9.00
2017-03-20T10:52:03.032Z,9.00
2017-03-20T10:53:08.988Z,9.10
2017-03-20T10:54:14.915Z,9.10
2017-03-20T10:55:20.792Z,9.10
2017-03-20T10:56:28.449Z,9.10
2017-03-20T10:57:34.120Z,9.10
2017-03-20T10:58:39.807Z,9.20
2017-03-20T10:59:45.700Z,9.20
2017-03-20T11:00:51.549Z,9.20
2017-03-20T11:01:57.592Z,9.20
2017-03-20T11:03:03.525Z,9.20
2017-03-20T11:04:09.582Z,9.20
2017-03-20T11:05:15.284Z,9.30
2017-03-20T11:06:21.864Z,9.30
2017-03-20T11:07:27.593Z,9.30
2017-03-20T11:08:34.536Z,9.30
2017-03-20T11:09:41.167Z,9.30
2017-03-20T11:10:46.907Z,9.30
2017-03-20T11:11:52.703Z,9.30
2017-03-20T11:12:57.747Z,9.30
2017-03-20T11:14:03.492Z,9.40
2017-03-20T11:15:10.097Z,9.40
2017-03-20T11:16:15.826Z,9.30
2017-03-20T11:17:21.651Z,9.30
2017-03-20T11:18:27.545Z,9.40
2017-03-20T11:19:33.428Z,9.40
2017-03-20T11:20:39.351Z,9.40
2017-03-20T11:21:45.367Z,9.40
2017-03-20T11:22:51.144Z,9.40
2017-03-20T11:23:57.088Z,9.50
2017-03-20T11:25:02.826Z,9.50
2017-03-20T11:26:08.839Z,9.40
2017-03-20T11:27:14.555Z,9.50
2017-03-20T11:28:20.733Z,9.50
2017-03-20T11:29:26.457Z,9.50
2017-03-20T11:30:32.289Z,9.50
2017-03-20T11:31:38.132Z,9.50
2017-03-20T11:32:43.875Z,9.50
2017-03-20T11:33:49.869Z,9.50
2017-03-20T11:34:55.602Z,9.50
2017-03-20T11:36:01.448Z,9.60
2017-03-20T11:37:07.220Z,9.60
2017-03-20T11:38:12.932Z,9.60
2017-03-20T11:39:18.790Z,9.60
2017-03-20T11:40:25.472Z,9.50
2017-03-20T11:41:31.389Z,9.60
2017-03-20T11:42:37.151Z,9.60
2017-03-20T11:43:42.868Z,9.60
2017-03-20T11:44:48.742Z,9.60
2017-03-20T11:45:54.460Z,9.70
2017-03-20T11:47:00.934Z,9.70
2017-03-20T11:48:06.780Z,9.70
2017-03-20T11:49:12.600Z,9.80
2017-03-20T11:50:19.087Z,9.80
2017-03-20T11:51:25.561Z,9.80
2017-03-20T11:52:32.204Z,9.80
2017-03-20T11:53:37.960Z,9.80
2017-03-20T11:54:43.855Z,9.90
2017-03-20T11:55:49.610Z,9.90
2017-03-20T11:56:55.447Z,9.90
2017-03-20T11:58:01.303Z,10.00
2017-03-20T11:59:07.319Z,10.00
2017-03-20T12:00:14.052Z,10.00
2017-03-20T12:01:19.792Z,10.00
2017-03-20T12:02:25.713Z,10.10
2017-03-20T12:03:31.681Z,10.10
2017-03-20T12:04:37.555Z,10.10
2017-03-20T12:05:43.338Z,10.20
2017-03-20T12:06:49.282Z,10.20
2017-03-20T12:07:55.165Z,10.20
2017-03-20T12:09:01.116Z,10.10
2017-03-20T12:10:06.933Z,10.10
2017-03-20T12:11:12.933Z,10.20
2017-03-20T12:12:18.673Z,10.20
2017-03-20T12:13:24.564Z,10.20
2017-03-20T12:14:30.488Z,10.20
2017-03-20T12:15:36.341Z,10.20
2017-03-20T12:16:42.174Z,10.20
2017-03-20T12:17:48.748Z,10.20
2017-03-20T12:18:54.530Z,10.30
2017-03-20T12:20:00.430Z,10.30
2017-03-20T12:21:06.193Z,10.30
2017-03-20T12:22:11.938Z,10.40
2017-03-20T12:23:17.703Z,10.40
2017-03-20T12:24:23.404Z,10.30
2017-03-20T12:25:29.227Z,10.30
2017-03-20T12:26:35.149Z,10.30
2017-03-20T12:27:41.089Z,10.30
2017-03-20T12:28:47.593Z,10.40
2017-03-20T12:29:53.498Z,10.40
2017-03-20T12:30:59.769Z,10.40
2017-03-20T12:32:06.467Z,10.40
2017-03-20T12:33:13.145Z,10.40
2017-03-20T12:34:20.199Z,10.40
2017-03-20T12:35:27.340Z,10.50
2017-03-20T12:36:33.172Z,10.50
2017-03-20T12:37:39.164Z,10.50
2017-03-20T12:38:45.052Z,10.40
2017-03-20T12:39:50.820Z,10.40
2017-03-20T12:40:56.557Z,10.40
2017-03-20T12:42:02.447Z,10.40
2017-03-20T12:43:08.189Z,10.40
2017-03-20T12:44:14.006Z,10.40
2017-03-20T12:45:20.056Z,10.40
2017-03-20T12:46:25.917Z,10.40
2017-03-20T12:47:31.707Z,10.40
2017-03-20T12:48:37.516Z,10.40
2017-03-20T12:49:43.186Z,10.40
2017-03-20T12:50:48.923Z,10.40
2017-03-20T12:51:54.788Z,10.40
2017-03-20T12:53:00.572Z,10.40
2017-03-20T12:54:06.405Z,10.40
2017-03-20T12:55:12.353Z,10.40
2017-03-20T12:56:18.186Z,10.40
2017-03-20T12:57:24.111Z,10.40
2017-03-20T12:58:29.898Z,10.30
2017-03-20T12:59:37.159Z,10.40
2017-03-20T13:00:42.850Z,10.40
2017-03-20T13:01:48.557Z,10.40
2017-03-20T13:02:54.271Z,10.40
2017-03-20T13:04:00.054Z,10.70
2017-03-20T13:05:05.761Z,10.40
2017-03-20T13:06:11.506Z,10.40
2017-03-20T13:07:17.357Z,10.40
2017-03-20T13:08:23.900Z,10.40
2017-03-20T13:09:30.516Z,10.30
2017-03-20T13:11:42.579Z,10.40
2017-03-20T13:12:48.489Z,10.40
2017-03-20T13:13:55.051Z,10.40
2017-03-20T13:15:00.893Z,10.40
2017-03-20T13:16:06.896Z,10.40
2017-03-20T13:17:13.598Z,10.40
2017-03-20T13:18:20.128Z,10.40
2017-03-20T13:19:26.093Z,10.40
2017-03-20T13:20:31.813Z,10.40
2017-03-20T13:21:37.517Z,10.40
2017-03-20T13:22:43.317Z,10.40
2017-03-20T13:23:49.640Z,10.40
2017-03-20T13:24:55.497Z,10.40
2017-03-20T13:26:02.045Z,10.40
2017-03-20T13:27:07.983Z,10.40
2017-03-20T13:28:13.789Z,10.40
2017-03-20T13:29:19.499Z,10.40
2017-03-20T13:30:25.433Z,10.40
2017-03-20T13:31:31.195Z,10.50
2017-03-20T13:32:37.795Z,10.40
2017-03-20T13:33:43.809Z,10.40
2017-03-20T13:34:50.532Z,10.40
2017-03-20T13:35:57.103Z,10.40
2017-03-20T13:37:03.128Z,10.50
2017-03-20T13:38:08.957Z,10.50
2017-03-20T13:39:15.483Z,10.40
2017-03-20T13:40:22.083Z,10.50
2017-03-20T13:41:28.601Z,10.40
2017-03-20T13:42:34.393Z,10.50
2017-03-20T13:43:40.222Z,10.50
2017-03-20T13:44:46.254Z,10.50
2017-03-20T13:45:51.984Z,10.50
2017-03-20T13:46:57.718Z,10.50
2017-03-20T13:48:03.671Z,10.50
2017-03-20T13:49:09.383Z,10.50
2017-03-20T13:50:15.114Z,10.60
2017-03-20T13:51:20.874Z,10.50
2017-03-20T13:52:26.635Z,10.60
2017-03-20T13:53:33.212Z,10.60
2017-03-20T13:54:38.942Z,10.60
2017-03-20T13:55:44.881Z,10.60
2017-03-20T13:56:51.357Z,10.60
2017-03-20T13:57:57.053Z,10.60
2017-03-20T13:59:03.617Z,10.60
2017-03-20T14:00:09.435Z,10.60
2017-03-20T14:01:15.212Z,10.60
2017-03-20T14:02:20.938Z,10.60
2017-03-20T14:03:26.727Z,10.60
2017-03-20T14:04:32.633Z,10.70
2017-03-20T14:05:38.615Z,10.70
2017-03-20T14:06:44.395Z,10.70
2017-03-20T14:07:50.143Z,10.70
2017-03-20T14:08:55.921Z,10.70
2017-03-20T14:10:01.908Z,10.70
2017-03-20T14:11:07.736Z,10.70
2017-03-20T14:12:13.572Z,10.80
2017-03-20T14:13:19.325Z,10.80
2017-03-20T14:14:25.145Z,10.80
2017-03-20T14:15:37.886Z,10.70
2017-03-20T14:16:43.834Z,10.80
2017-03-20T14:17:49.660Z,10.80
2017-03-20T14:18:55.384Z,10.90
2017-03-20T14:20:01.076Z,10.80
2017-03-20T14:21:06.743Z,10.90
2017-03-20T14:22:12.573Z,10.90
2017-03-20T14:23:18.472Z,10.90
2017-03-20T14:24:24.347Z,10.90
2017-03-20T14:25:31.099Z,10.90
2017-03-20T14:26:37.110Z,10.90
2017-03-20T14:27:43.806Z,10.80
2017-03-20T14:28:49.507Z,10.90
2017-03-20T14:29:55.330Z,10.80
2017-03-20T14:31:01.318Z,10.90
2017-03-20T14:32:07.060Z,10.90
2017-03-20T14:33:12.875Z,10.90
2017-03-20T14:34:18.605Z,10.90
2017-03-20T14:35:24.531Z,10.90
2017-03-20T14:36:30.328Z,10.90
2017-03-20T14:37:36.883Z,10.80
2017-03-20T14:38:43.051Z,10.90
2017-03-20T14:39:48.829Z,10.80
2017-03-20T14:40:54.546Z,10.80
2017-03-20T14:42:00.505Z,10.70
2017-03-20T14:43:06.498Z,10.70